sensor_id;sensor_type;location;lat;lon;timestamp;P1;durP1;ratioP1;P2;durP2;ratioP2
77109;SDS011;66062;52.464;16.922;2022-12-24T00:02:16;86.15;;;28.73;;
77109;SDS011;66062;52.464;16.922;2022-12-24T00:04:42;66.32;;;27.00;;
77109;SDS011;66062;52.464;16.922;2022-12-24T00:07:08;74.10;;;28.50;;
77109;SDS011;66062;52.464;16.922;2022-12-24T00:09:33;62.50;;;24.55;;
77109;SDS011;66062;52.464;16.922;2022-12-24T00:11:58;71.93;;;26.55;;
77109;SDS011;66062;52.464;16.922;2022-12-24T00:14:24;71.18;;;26.95;;
77109;SDS011;66062;52.464;16.922;2022-12-24T00:16:49;58.85;;;24.55;;
77109;SDS011;66062;52.464;16.922;2022-12-24T00:19:18;55.97;;;23.58;;
77109;SDS011;66062;52.464;16.922;2022-12-24T00:21:43;114.20;;;29.00;;
77109;SDS011;66062;52.464;16.922;2022-12-24T00:24:09;50.90;;;22.95;;
77109;SDS011;66062;52.464;16.922;2022-12-24T00:26:34;45.95;;;19.80;;
77109;SDS011;66062;52.464;16.922;2022-12-24T00:29:00;47.50;;;20.25;;
77109;SDS011;66062;52.464;16.922;2022-12-24T00:31:25;45.50;;;20.42;;
77109;SDS011;66062;52.464;16.922;2022-12-24T00:33:51;50.42;;;20.08;;
77109;SDS011;66062;52.464;16.922;2022-12-24T00:36:17;40.90;;;19.35;;
77109;SDS011;66062;52.464;16.922;2022-12-24T00:38:43;46.88;;;20.90;;
77109;SDS011;66062;52.464;16.922;2022-12-24T00:41:09;43.40;;;19.38;;
77109;SDS011;66062;52.464;16.922;2022-12-24T00:44:06;77.70;;;19.08;;
77109;SDS011;66062;52.464;16.922;2022-12-24T00:46:38;49.22;;;18.65;;
77109;SDS011;66062;52.464;16.922;2022-12-24T00:49:04;119.45;;;21.55;;
77109;SDS011;66062;52.464;16.922;2022-12-24T00:51:31;91.13;;;20.58;;
77109;SDS011;66062;52.464;16.922;2022-12-24T00:53:57;48.72;;;18.55;;
77109;SDS011;66062;52.464;16.922;2022-12-24T00:56:23;58.58;;;19.80;;
77109;SDS011;66062;52.464;16.922;2022-12-24T00:58:49;46.70;;;17.42;;
77109;SDS011;66062;52.464;16.922;2022-12-24T01:01:15;64.95;;;23.63;;
77109;SDS011;66062;52.464;16.922;2022-12-24T01:03:41;44.83;;;17.70;;
77109;SDS011;66062;52.464;16.922;2022-12-24T01:06:11;42.80;;;17.33;;
77109;SDS011;66062;52.464;16.922;2022-12-24T01:08:39;47.63;;;17.58;;
77109;SDS011;66062;52.464;16.922;2022-12-24T01:11:05;38.17;;;15.20;;
77109;SDS011;66062;52.464;16.922;2022-12-24T01:13:32;61.17;;;18.40;;
77109;SDS011;66062;52.464;16.922;2022-12-24T01:15:58;44.38;;;16.20;;
77109;SDS011;66062;52.464;16.922;2022-12-24T01:18:24;36.85;;;16.35;;
77109;SDS011;66062;52.464;16.922;2022-12-24T01:21:01;40.15;;;16.35;;
77109;SDS011;66062;52.464;16.922;2022-12-24T01:23:28;37.95;;;15.55;;
77109;SDS011;66062;52.464;16.922;2022-12-24T01:28:23;35.08;;;13.85;;
77109;SDS011;66062;52.464;16.922;2022-12-24T01:30:48;34.83;;;15.10;;
77109;SDS011;66062;52.464;16.922;2022-12-24T01:33:14;49.22;;;15.25;;
77109;SDS011;66062;52.464;16.922;2022-12-24T01:35:39;28.45;;;14.05;;
77109;SDS011;66062;52.464;16.922;2022-12-24T01:38:05;36.97;;;16.20;;
77109;SDS011;66062;52.464;16.922;2022-12-24T01:40:31;40.80;;;15.30;;
77109;SDS011;66062;52.464;16.922;2022-12-24T01:43:16;36.10;;;15.10;;
77109;SDS011;66062;52.464;16.922;2022-12-24T01:45:54;33.50;;;14.00;;
77109;SDS011;66062;52.464;16.922;2022-12-24T01:50:45;30.10;;;13.43;;
77109;SDS011;66062;52.464;16.922;2022-12-24T01:53:13;30.70;;;13.20;;
77109;SDS011;66062;52.464;16.922;2022-12-24T01:55:40;31.35;;;13.93;;
77109;SDS011;66062;52.464;16.922;2022-12-24T01:58:07;29.30;;;13.32;;
77109;SDS011;66062;52.464;16.922;2022-12-24T02:00:34;26.05;;;13.00;;
77109;SDS011;66062;52.464;16.922;2022-12-24T02:03:00;26.95;;;12.55;;
77109;SDS011;66062;52.464;16.922;2022-12-24T02:05:27;23.05;;;11.68;;
77109;SDS011;66062;52.464;16.922;2022-12-24T02:07:56;24.23;;;11.38;;
77109;SDS011;66062;52.464;16.922;2022-12-24T02:10:23;24.05;;;11.10;;
77109;SDS011;66062;52.464;16.922;2022-12-24T02:12:49;25.15;;;11.85;;
77109;SDS011;66062;52.464;16.922;2022-12-24T02:18:41;20.10;;;9.82;;
77109;SDS011;66062;52.464;16.922;2022-12-24T02:21:36;17.65;;;8.93;;
77109;SDS011;66062;52.464;16.922;2022-12-24T02:38:03;21.42;;;9.15;;
77109;SDS011;66062;52.464;16.922;2022-12-24T02:40:38;19.85;;;9.85;;
77109;SDS011;66062;52.464;16.922;2022-12-24T02:43:12;22.92;;;9.10;;
77109;SDS011;66062;52.464;16.922;2022-12-24T02:45:41;19.98;;;9.05;;
77109;SDS011;66062;52.464;16.922;2022-12-24T02:48:10;26.33;;;10.30;;
77109;SDS011;66062;52.464;16.922;2022-12-24T02:50:38;23.90;;;10.05;;
77109;SDS011;66062;52.464;16.922;2022-12-24T02:53:04;21.00;;;9.85;;
77109;SDS011;66062;52.464;16.922;2022-12-24T03:04:30;27.60;;;11.52;;
77109;SDS011;66062;52.464;16.922;2022-12-24T03:07:20;24.75;;;10.48;;
77109;SDS011;66062;52.464;16.922;2022-12-24T03:12:40;27.35;;;11.43;;
77109;SDS011;66062;52.464;16.922;2022-12-24T03:15:10;28.33;;;11.45;;
77109;SDS011;66062;52.464;16.922;2022-12-24T03:17:38;29.02;;;11.50;;
77109;SDS011;66062;52.464;16.922;2022-12-24T03:20:06;52.75;;;20.63;;
77109;SDS011;66062;52.464;16.922;2022-12-24T03:22:35;40.78;;;14.30;;
77109;SDS011;66062;52.464;16.922;2022-12-24T03:25:01;35.25;;;13.38;;
77109;SDS011;66062;52.464;16.922;2022-12-24T03:27:28;40.08;;;14.98;;
77109;SDS011;66062;52.464;16.922;2022-12-24T03:29:54;38.75;;;14.05;;
77109;SDS011;66062;52.464;16.922;2022-12-24T03:32:29;33.55;;;12.73;;
77109;SDS011;66062;52.464;16.922;2022-12-24T03:34:56;37.25;;;13.82;;
77109;SDS011;66062;52.464;16.922;2022-12-24T03:37:22;39.30;;;13.05;;
77109;SDS011;66062;52.464;16.922;2022-12-24T03:39:48;38.28;;;13.32;;
77109;SDS011;66062;52.464;16.922;2022-12-24T03:42:13;38.97;;;13.85;;
77109;SDS011;66062;52.464;16.922;2022-12-24T03:44:39;45.40;;;14.40;;
77109;SDS011;66062;52.464;16.922;2022-12-24T03:47:04;36.30;;;14.30;;
77109;SDS011;66062;52.464;16.922;2022-12-24T03:49:29;40.72;;;15.85;;
77109;SDS011;66062;52.464;16.922;2022-12-24T03:51:55;39.88;;;13.57;;
77109;SDS011;66062;52.464;16.922;2022-12-24T03:54:20;36.35;;;13.45;;
77109;SDS011;66062;52.464;16.922;2022-12-24T03:56:46;41.15;;;13.50;;
77109;SDS011;66062;52.464;16.922;2022-12-24T03:59:11;42.33;;;14.10;;
77109;SDS011;66062;52.464;16.922;2022-12-24T04:01:36;39.05;;;15.25;;
77109;SDS011;66062;52.464;16.922;2022-12-24T04:04:02;39.60;;;15.70;;
77109;SDS011;66062;52.464;16.922;2022-12-24T04:06:27;39.15;;;13.38;;
77109;SDS011;66062;52.464;16.922;2022-12-24T04:08:52;41.22;;;14.85;;
77109;SDS011;66062;52.464;16.922;2022-12-24T04:11:18;42.25;;;15.13;;
77109;SDS011;66062;52.464;16.922;2022-12-24T04:13:43;42.45;;;16.38;;
77109;SDS011;66062;52.464;16.922;2022-12-24T04:16:10;42.75;;;15.45;;
77109;SDS011;66062;52.464;16.922;2022-12-24T04:18:38;44.92;;;16.05;;
77109;SDS011;66062;52.464;16.922;2022-12-24T04:21:05;47.30;;;14.90;;
77109;SDS011;66062;52.464;16.922;2022-12-24T04:23:31;54.45;;;15.70;;
77109;SDS011;66062;52.464;16.922;2022-12-24T04:25:58;43.83;;;15.35;;
77109;SDS011;66062;52.464;16.922;2022-12-24T04:28:24;46.80;;;16.98;;
77109;SDS011;66062;52.464;16.922;2022-12-24T04:30:50;49.60;;;16.38;;
77109;SDS011;66062;52.464;16.922;2022-12-24T04:33:15;44.80;;;16.10;;
77109;SDS011;66062;52.464;16.922;2022-12-24T04:35:40;47.22;;;15.57;;
77109;SDS011;66062;52.464;16.922;2022-12-24T04:38:06;49.03;;;17.02;;
77109;SDS011;66062;52.464;16.922;2022-12-24T04:40:33;47.10;;;16.30;;
77109;SDS011;66062;52.464;16.922;2022-12-24T04:42:58;44.83;;;16.10;;
77109;SDS011;66062;52.464;16.922;2022-12-24T04:45:23;44.75;;;16.67;;
77109;SDS011;66062;52.464;16.922;2022-12-24T04:47:49;44.65;;;16.98;;
77109;SDS011;66062;52.464;16.922;2022-12-24T04:50:14;48.97;;;16.05;;
77109;SDS011;66062;52.464;16.922;2022-12-24T04:52:40;41.80;;;16.10;;
77109;SDS011;66062;52.464;16.922;2022-12-24T04:55:05;41.97;;;14.13;;
77109;SDS011;66062;52.464;16.922;2022-12-24T04:57:31;49.08;;;16.98;;
77109;SDS011;66062;52.464;16.922;2022-12-24T04:59:57;45.53;;;16.35;;
77109;SDS011;66062;52.464;16.922;2022-12-24T05:02:23;48.92;;;16.50;;
77109;SDS011;66062;52.464;16.922;2022-12-24T05:04:49;46.85;;;17.15;;
77109;SDS011;66062;52.464;16.922;2022-12-24T05:07:14;44.28;;;16.92;;
77109;SDS011;66062;52.464;16.922;2022-12-24T05:09:39;41.63;;;14.90;;
77109;SDS011;66062;52.464;16.922;2022-12-24T05:12:05;45.17;;;16.48;;
77109;SDS011;66062;52.464;16.922;2022-12-24T05:14:30;46.13;;;17.33;;
77109;SDS011;66062;52.464;16.922;2022-12-24T05:16:56;44.80;;;16.70;;
77109;SDS011;66062;52.464;16.922;2022-12-24T05:19:21;35.95;;;14.60;;
77109;SDS011;66062;52.464;16.922;2022-12-24T05:21:47;38.50;;;15.30;;
77109;SDS011;66062;52.464;16.922;2022-12-24T05:24:32;38.58;;;15.05;;
77109;SDS011;66062;52.464;16.922;2022-12-24T05:27:16;42.33;;;15.90;;
77109;SDS011;66062;52.464;16.922;2022-12-24T05:29:41;50.00;;;17.48;;
77109;SDS011;66062;52.464;16.922;2022-12-24T05:32:07;42.60;;;16.67;;
77109;SDS011;66062;52.464;16.922;2022-12-24T05:34:32;48.38;;;15.70;;
77109;SDS011;66062;52.464;16.922;2022-12-24T05:36:57;48.72;;;18.42;;
77109;SDS011;66062;52.464;16.922;2022-12-24T05:39:23;52.85;;;18.50;;
77109;SDS011;66062;52.464;16.922;2022-12-24T05:41:48;48.93;;;17.00;;
77109;SDS011;66062;52.464;16.922;2022-12-24T05:44:13;48.65;;;19.00;;
77109;SDS011;66062;52.464;16.922;2022-12-24T05:46:40;42.42;;;16.67;;
77109;SDS011;66062;52.464;16.922;2022-12-24T05:49:05;40.60;;;17.20;;
77109;SDS011;66062;52.464;16.922;2022-12-24T05:51:31;45.60;;;18.20;;
77109;SDS011;66062;52.464;16.922;2022-12-24T05:53:56;46.75;;;16.33;;
77109;SDS011;66062;52.464;16.922;2022-12-24T05:56:22;46.47;;;17.50;;
77109;SDS011;66062;52.464;16.922;2022-12-24T05:58:48;43.17;;;16.17;;
77109;SDS011;66062;52.464;16.922;2022-12-24T06:01:16;42.22;;;16.35;;
77109;SDS011;66062;52.464;16.922;2022-12-24T06:03:42;36.47;;;14.93;;
77109;SDS011;66062;52.464;16.922;2022-12-24T06:06:09;38.53;;;15.05;;
77109;SDS011;66062;52.464;16.922;2022-12-24T06:08:35;39.45;;;15.68;;
77109;SDS011;66062;52.464;16.922;2022-12-24T06:11:02;34.30;;;12.75;;
77109;SDS011;66062;52.464;16.922;2022-12-24T06:13:30;38.70;;;14.20;;
77109;SDS011;66062;52.464;16.922;2022-12-24T06:15:56;33.47;;;13.35;;
77109;SDS011;66062;52.464;16.922;2022-12-24T06:18:22;34.83;;;11.88;;
77109;SDS011;66062;52.464;16.922;2022-12-24T06:20:49;29.88;;;12.23;;
77109;SDS011;66062;52.464;16.922;2022-12-24T06:23:15;30.75;;;13.40;;
77109;SDS011;66062;52.464;16.922;2022-12-24T06:25:41;26.10;;;12.07;;
77109;SDS011;66062;52.464;16.922;2022-12-24T06:28:06;25.45;;;11.15;;
77109;SDS011;66062;52.464;16.922;2022-12-24T06:30:32;29.52;;;11.13;;
77109;SDS011;66062;52.464;16.922;2022-12-24T06:32:57;30.85;;;11.60;;
77109;SDS011;66062;52.464;16.922;2022-12-24T06:35:22;31.70;;;12.13;;
77109;SDS011;66062;52.464;16.922;2022-12-24T06:37:48;27.27;;;11.10;;
77109;SDS011;66062;52.464;16.922;2022-12-24T06:40:13;26.48;;;12.35;;
77109;SDS011;66062;52.464;16.922;2022-12-24T06:42:38;26.67;;;11.07;;
77109;SDS011;66062;52.464;16.922;2022-12-24T06:45:04;28.38;;;12.15;;
77109;SDS011;66062;52.464;16.922;2022-12-24T06:47:30;29.80;;;10.57;;
77109;SDS011;66062;52.464;16.922;2022-12-24T06:49:55;44.47;;;19.58;;
77109;SDS011;66062;52.464;16.922;2022-12-24T06:52:21;31.77;;;14.00;;
77109;SDS011;66062;52.464;16.922;2022-12-24T06:54:46;28.45;;;12.00;;
77109;SDS011;66062;52.464;16.922;2022-12-24T06:57:11;27.02;;;10.90;;
77109;SDS011;66062;52.464;16.922;2022-12-24T06:59:37;27.23;;;11.77;;
77109;SDS011;66062;52.464;16.922;2022-12-24T07:02:02;29.83;;;12.93;;
77109;SDS011;66062;52.464;16.922;2022-12-24T07:04:27;32.05;;;12.50;;
77109;SDS011;66062;52.464;16.922;2022-12-24T07:06:54;35.15;;;11.98;;
77109;SDS011;66062;52.464;16.922;2022-12-24T07:09:21;31.85;;;12.77;;
77109;SDS011;66062;52.464;16.922;2022-12-24T07:11:46;35.40;;;12.55;;
77109;SDS011;66062;52.464;16.922;2022-12-24T07:14:11;30.25;;;13.32;;
77109;SDS011;66062;52.464;16.922;2022-12-24T07:16:37;31.25;;;13.15;;
77109;SDS011;66062;52.464;16.922;2022-12-24T07:19:02;37.53;;;14.52;;
77109;SDS011;66062;52.464;16.922;2022-12-24T07:21:28;35.83;;;12.70;;
77109;SDS011;66062;52.464;16.922;2022-12-24T07:23:53;31.88;;;12.40;;
77109;SDS011;66062;52.464;16.922;2022-12-24T07:26:21;32.83;;;13.55;;
77109;SDS011;66062;52.464;16.922;2022-12-24T07:28:47;27.38;;;12.82;;
77109;SDS011;66062;52.464;16.922;2022-12-24T07:31:12;29.52;;;12.18;;
77109;SDS011;66062;52.464;16.922;2022-12-24T07:33:38;27.85;;;12.93;;
77109;SDS011;66062;52.464;16.922;2022-12-24T07:36:04;28.23;;;12.80;;
77109;SDS011;66062;52.464;16.922;2022-12-24T07:38:31;34.10;;;13.55;;
77109;SDS011;66062;52.464;16.922;2022-12-24T07:40:57;39.78;;;13.80;;
77109;SDS011;66062;52.464;16.922;2022-12-24T07:43:23;33.67;;;13.70;;
77109;SDS011;66062;52.464;16.922;2022-12-24T07:45:49;37.35;;;13.73;;
77109;SDS011;66062;52.464;16.922;2022-12-24T07:48:14;47.95;;;19.52;;
77109;SDS011;66062;52.464;16.922;2022-12-24T07:50:40;35.70;;;14.32;;
77109;SDS011;66062;52.464;16.922;2022-12-24T07:53:06;37.80;;;15.05;;
77109;SDS011;66062;52.464;16.922;2022-12-24T07:55:31;38.90;;;16.05;;
77109;SDS011;66062;52.464;16.922;2022-12-24T07:57:57;33.22;;;14.95;;
77109;SDS011;66062;52.464;16.922;2022-12-24T08:00:22;44.05;;;17.20;;
77109;SDS011;66062;52.464;16.922;2022-12-24T08:02:48;39.58;;;15.27;;
77109;SDS011;66062;52.464;16.922;2022-12-24T08:05:13;46.40;;;15.65;;
77109;SDS011;66062;52.464;16.922;2022-12-24T08:07:38;42.40;;;16.85;;
77109;SDS011;66062;52.464;16.922;2022-12-24T08:10:04;36.05;;;13.80;;
77109;SDS011;66062;52.464;16.922;2022-12-24T08:12:30;38.10;;;14.15;;
77109;SDS011;66062;52.464;16.922;2022-12-24T08:14:55;39.92;;;14.43;;
77109;SDS011;66062;52.464;16.922;2022-12-24T08:17:20;37.88;;;15.23;;
77109;SDS011;66062;52.464;16.922;2022-12-24T08:19:46;36.35;;;14.60;;
77109;SDS011;66062;52.464;16.922;2022-12-24T08:22:11;44.72;;;15.63;;
77109;SDS011;66062;52.464;16.922;2022-12-24T08:24:36;45.97;;;15.77;;
77109;SDS011;66062;52.464;16.922;2022-12-24T08:27:02;40.50;;;16.10;;
77109;SDS011;66062;52.464;16.922;2022-12-24T08:29:27;41.78;;;15.27;;
77109;SDS011;66062;52.464;16.922;2022-12-24T08:31:53;44.45;;;17.13;;
77109;SDS011;66062;52.464;16.922;2022-12-24T08:34:18;41.83;;;15.35;;
77109;SDS011;66062;52.464;16.922;2022-12-24T08:36:44;47.00;;;17.20;;
77109;SDS011;66062;52.464;16.922;2022-12-24T08:39:09;43.03;;;16.73;;
77109;SDS011;66062;52.464;16.922;2022-12-24T08:41:35;45.83;;;16.52;;
77109;SDS011;66062;52.464;16.922;2022-12-24T08:44:09;55.53;;;19.13;;
77109;SDS011;66062;52.464;16.922;2022-12-24T08:46:35;40.70;;;16.10;;
77109;SDS011;66062;52.464;16.922;2022-12-24T08:49:01;43.85;;;16.55;;
77109;SDS011;66062;52.464;16.922;2022-12-24T08:51:26;57.05;;;18.83;;
77109;SDS011;66062;52.464;16.922;2022-12-24T08:53:52;46.10;;;17.42;;
77109;SDS011;66062;52.464;16.922;2022-12-24T08:56:20;43.40;;;16.83;;
77109;SDS011;66062;52.464;16.922;2022-12-24T08:58:45;47.78;;;17.20;;
77109;SDS011;66062;52.464;16.922;2022-12-24T09:01:14;40.33;;;16.45;;
77109;SDS011;66062;52.464;16.922;2022-12-24T09:03:41;40.42;;;17.98;;
77109;SDS011;66062;52.464;16.922;2022-12-24T09:06:07;53.58;;;17.98;;
77109;SDS011;66062;52.464;16.922;2022-12-24T09:08:33;48.50;;;17.45;;
77109;SDS011;66062;52.464;16.922;2022-12-24T09:11:03;42.78;;;16.58;;
77109;SDS011;66062;52.464;16.922;2022-12-24T09:13:30;35.97;;;15.15;;
77109;SDS011;66062;52.464;16.922;2022-12-24T09:15:56;50.40;;;16.90;;
77109;SDS011;66062;52.464;16.922;2022-12-24T09:18:22;44.63;;;16.63;;
77109;SDS011;66062;52.464;16.922;2022-12-24T09:20:48;44.55;;;15.40;;
77109;SDS011;66062;52.464;16.922;2022-12-24T09:23:13;44.50;;;16.05;;
77109;SDS011;66062;52.464;16.922;2022-12-24T09:25:42;39.33;;;14.87;;
77109;SDS011;66062;52.464;16.922;2022-12-24T09:28:08;36.67;;;14.27;;
77109;SDS011;66062;52.464;16.922;2022-12-24T09:30:35;41.33;;;16.00;;
77109;SDS011;66062;52.464;16.922;2022-12-24T09:33:01;37.35;;;15.55;;
77109;SDS011;66062;52.464;16.922;2022-12-24T09:35:26;39.72;;;15.45;;
77109;SDS011;66062;52.464;16.922;2022-12-24T09:37:54;34.78;;;14.50;;
77109;SDS011;66062;52.464;16.922;2022-12-24T09:40:37;37.58;;;14.77;;
77109;SDS011;66062;52.464;16.922;2022-12-24T09:43:39;35.53;;;14.50;;
77109;SDS011;66062;52.464;16.922;2022-12-24T09:51:24;39.38;;;13.57;;
77109;SDS011;66062;52.464;16.922;2022-12-24T09:53:57;43.50;;;15.10;;
77109;SDS011;66062;52.464;16.922;2022-12-24T09:56:29;42.03;;;17.17;;
77109;SDS011;66062;52.464;16.922;2022-12-24T09:58:58;40.92;;;15.63;;
77109;SDS011;66062;52.464;16.922;2022-12-24T10:01:29;38.78;;;15.07;;
77109;SDS011;66062;52.464;16.922;2022-12-24T10:03:59;42.42;;;17.00;;
77109;SDS011;66062;52.464;16.922;2022-12-24T10:09:23;40.28;;;16.88;;
77109;SDS011;66062;52.464;16.922;2022-12-24T10:23:22;34.75;;;14.50;;
77109;SDS011;66062;52.464;16.922;2022-12-24T10:28:46;39.97;;;16.92;;
77109;SDS011;66062;52.464;16.922;2022-12-24T10:31:39;36.05;;;15.07;;
77109;SDS011;66062;52.464;16.922;2022-12-24T10:34:11;41.70;;;17.85;;
77109;SDS011;66062;52.464;16.922;2022-12-24T10:36:41;37.60;;;14.98;;
77109;SDS011;66062;52.464;16.922;2022-12-24T10:39:12;39.13;;;16.20;;
77109;SDS011;66062;52.464;16.922;2022-12-24T10:41:44;33.72;;;14.63;;
77109;SDS011;66062;52.464;16.922;2022-12-24T10:44:19;40.97;;;16.77;;
77109;SDS011;66062;52.464;16.922;2022-12-24T10:46:47;39.38;;;16.25;;
77109;SDS011;66062;52.464;16.922;2022-12-24T10:49:15;38.88;;;16.40;;
77109;SDS011;66062;52.464;16.922;2022-12-24T10:51:50;34.78;;;15.82;;
77109;SDS011;66062;52.464;16.922;2022-12-24T10:54:24;37.80;;;15.82;;
77109;SDS011;66062;52.464;16.922;2022-12-24T10:56:55;39.10;;;15.82;;
77109;SDS011;66062;52.464;16.922;2022-12-24T10:59:24;43.05;;;17.90;;
77109;SDS011;66062;52.464;16.922;2022-12-24T11:02:00;47.38;;;18.63;;
77109;SDS011;66062;52.464;16.922;2022-12-24T11:04:28;39.45;;;16.83;;
77109;SDS011;66062;52.464;16.922;2022-12-24T11:06:56;40.28;;;18.17;;
77109;SDS011;66062;52.464;16.922;2022-12-24T11:09:23;46.80;;;19.42;;
77109;SDS011;66062;52.464;16.922;2022-12-24T11:11:53;43.88;;;17.85;;
77109;SDS011;66062;52.464;16.922;2022-12-24T11:14:20;43.33;;;18.92;;
77109;SDS011;66062;52.464;16.922;2022-12-24T11:16:47;48.60;;;19.52;;
77109;SDS011;66062;52.464;16.922;2022-12-24T11:19:16;45.75;;;18.45;;
77109;SDS011;66062;52.464;16.922;2022-12-24T11:21:46;43.88;;;17.95;;
77109;SDS011;66062;52.464;16.922;2022-12-24T11:26:38;46.90;;;19.90;;
77109;SDS011;66062;52.464;16.922;2022-12-24T11:29:22;50.08;;;22.27;;
77109;SDS011;66062;52.464;16.922;2022-12-24T11:31:49;39.45;;;18.45;;
77109;SDS011;66062;52.464;16.922;2022-12-24T11:34:29;39.35;;;16.20;;
77109;SDS011;66062;52.464;16.922;2022-12-24T11:37:09;35.63;;;17.10;;
77109;SDS011;66062;52.464;16.922;2022-12-24T11:39:48;38.25;;;16.45;;
77109;SDS011;66062;52.464;16.922;2022-12-24T11:42:22;36.35;;;15.38;;
77109;SDS011;66062;52.464;16.922;2022-12-24T11:44:49;38.50;;;17.23;;
77109;SDS011;66062;52.464;16.922;2022-12-24T11:47:15;42.40;;;18.05;;
77109;SDS011;66062;52.464;16.922;2022-12-24T11:49:40;35.50;;;17.38;;
77109;SDS011;66062;52.464;16.922;2022-12-24T11:57:18;42.08;;;18.40;;
77109;SDS011;66062;52.464;16.922;2022-12-24T11:59:47;44.60;;;19.17;;
77109;SDS011;66062;52.464;16.922;2022-12-24T12:05:29;36.70;;;16.27;;
77109;SDS011;66062;52.464;16.922;2022-12-24T12:08:07;38.97;;;17.15;;
77109;SDS011;66062;52.464;16.922;2022-12-24T12:10:48;35.05;;;16.23;;
77109;SDS011;66062;52.464;16.922;2022-12-24T12:13:21;40.05;;;18.50;;
77109;SDS011;66062;52.464;16.922;2022-12-24T12:19:09;37.20;;;16.58;;
77109;SDS011;66062;52.464;16.922;2022-12-24T12:21:37;35.33;;;17.17;;
77109;SDS011;66062;52.464;16.922;2022-12-24T12:24:18;44.60;;;19.05;;
77109;SDS011;66062;52.464;16.922;2022-12-24T12:26:56;42.25;;;17.25;;
77109;SDS011;66062;52.464;16.922;2022-12-24T12:29:46;37.75;;;17.63;;
77109;SDS011;66062;52.464;16.922;2022-12-24T12:32:25;47.90;;;20.30;;
77109;SDS011;66062;52.464;16.922;2022-12-24T12:34:58;48.13;;;21.85;;
77109;SDS011;66062;52.464;16.922;2022-12-24T12:37:35;42.10;;;19.40;;
77109;SDS011;66062;52.464;16.922;2022-12-24T12:40:10;42.67;;;19.20;;
77109;SDS011;66062;52.464;16.922;2022-12-24T12:42:38;41.03;;;17.63;;
77109;SDS011;66062;52.464;16.922;2022-12-24T12:45:42;45.60;;;20.55;;
77109;SDS011;66062;52.464;16.922;2022-12-24T12:48:39;43.50;;;18.95;;
77109;SDS011;66062;52.464;16.922;2022-12-24T12:57:09;44.90;;;18.83;;
77109;SDS011;66062;52.464;16.922;2022-12-24T13:08:22;40.78;;;18.80;;
77109;SDS011;66062;52.464;16.922;2022-12-24T13:10:52;43.88;;;19.90;;
77109;SDS011;66062;52.464;16.922;2022-12-24T13:17:17;52.42;;;20.80;;
77109;SDS011;66062;52.464;16.922;2022-12-24T13:20:09;52.47;;;21.73;;
77109;SDS011;66062;52.464;16.922;2022-12-24T13:22:50;45.30;;;20.38;;
77109;SDS011;66062;52.464;16.922;2022-12-24T13:25:25;43.67;;;20.00;;
77109;SDS011;66062;52.464;16.922;2022-12-24T13:28:30;48.20;;;19.98;;
77109;SDS011;66062;52.464;16.922;2022-12-24T13:49:38;62.47;;;23.20;;
77109;SDS011;66062;52.464;16.922;2022-12-24T13:52:27;53.03;;;22.20;;
77109;SDS011;66062;52.464;16.922;2022-12-24T14:00:34;53.30;;;23.92;;
77109;SDS011;66062;52.464;16.922;2022-12-24T14:03:15;56.20;;;25.88;;
77109;SDS011;66062;52.464;16.922;2022-12-24T14:05:49;53.97;;;25.38;;
77109;SDS011;66062;52.464;16.922;2022-12-24T14:08:37;56.40;;;23.88;;
77109;SDS011;66062;52.464;16.922;2022-12-24T14:11:07;59.38;;;25.30;;
77109;SDS011;66062;52.464;16.922;2022-12-24T14:16:07;66.50;;;25.77;;
77109;SDS011;66062;52.464;16.922;2022-12-24T14:18:37;56.47;;;23.13;;
77109;SDS011;66062;52.464;16.922;2022-12-24T14:21:05;61.50;;;26.90;;
77109;SDS011;66062;52.464;16.922;2022-12-24T14:23:36;56.28;;;23.42;;
77109;SDS011;66062;52.464;16.922;2022-12-24T14:26:07;54.67;;;24.30;;
77109;SDS011;66062;52.464;16.922;2022-12-24T14:28:42;58.78;;;25.40;;
77109;SDS011;66062;52.464;16.922;2022-12-24T14:31:12;66.40;;;26.75;;
77109;SDS011;66062;52.464;16.922;2022-12-24T14:33:40;53.22;;;23.42;;
77109;SDS011;66062;52.464;16.922;2022-12-24T14:36:06;62.40;;;27.40;;
77109;SDS011;66062;52.464;16.922;2022-12-24T14:38:31;56.67;;;24.85;;
77109;SDS011;66062;52.464;16.922;2022-12-24T14:46:33;64.38;;;29.20;;
77109;SDS011;66062;52.464;16.922;2022-12-24T14:49:16;56.60;;;23.98;;
77109;SDS011;66062;52.464;16.922;2022-12-24T14:54:53;56.83;;;24.58;;
77109;SDS011;66062;52.464;16.922;2022-12-24T14:57:20;61.75;;;25.50;;
77109;SDS011;66062;52.464;16.922;2022-12-24T15:00:00;59.78;;;26.80;;
77109;SDS011;66062;52.464;16.922;2022-12-24T15:05:19;64.25;;;26.98;;
77109;SDS011;66062;52.464;16.922;2022-12-24T15:12:52;67.13;;;26.73;;
77109;SDS011;66062;52.464;16.922;2022-12-24T15:15:20;60.13;;;26.15;;
77109;SDS011;66062;52.464;16.922;2022-12-24T15:17:46;64.57;;;26.85;;
77109;SDS011;66062;52.464;16.922;2022-12-24T15:20:19;51.70;;;24.33;;
77109;SDS011;66062;52.464;16.922;2022-12-24T15:22:49;62.58;;;25.48;;
77109;SDS011;66062;52.464;16.922;2022-12-24T15:25:20;62.30;;;25.00;;
77109;SDS011;66062;52.464;16.922;2022-12-24T15:27:54;58.75;;;25.35;;
77109;SDS011;66062;52.464;16.922;2022-12-24T15:30:21;54.13;;;25.50;;
77109;SDS011;66062;52.464;16.922;2022-12-24T15:32:49;56.00;;;25.38;;
77109;SDS011;66062;52.464;16.922;2022-12-24T15:35:29;62.92;;;26.55;;
77109;SDS011;66062;52.464;16.922;2022-12-24T15:37:58;58.67;;;26.02;;
77109;SDS011;66062;52.464;16.922;2022-12-24T15:40:25;64.45;;;27.70;;
77109;SDS011;66062;52.464;16.922;2022-12-24T15:42:51;61.42;;;26.35;;
77109;SDS011;66062;52.464;16.922;2022-12-24T15:47:44;62.90;;;26.35;;
77109;SDS011;66062;52.464;16.922;2022-12-24T15:50:14;54.22;;;25.15;;
77109;SDS011;66062;52.464;16.922;2022-12-24T15:52:43;58.58;;;25.10;;
77109;SDS011;66062;52.464;16.922;2022-12-24T15:58:22;57.78;;;25.90;;
77109;SDS011;66062;52.464;16.922;2022-12-24T16:03:38;57.40;;;25.08;;
77109;SDS011;66062;52.464;16.922;2022-12-24T16:06:06;59.83;;;25.00;;
77109;SDS011;66062;52.464;16.922;2022-12-24T16:08:36;57.10;;;25.35;;
77109;SDS011;66062;52.464;16.922;2022-12-24T16:13:29;59.53;;;24.93;;
77109;SDS011;66062;52.464;16.922;2022-12-24T16:16:01;50.88;;;23.85;;
77109;SDS011;66062;52.464;16.922;2022-12-24T16:21:35;50.50;;;22.75;;
77109;SDS011;66062;52.464;16.922;2022-12-24T16:26:37;51.90;;;24.63;;
77109;SDS011;66062;52.464;16.922;2022-12-24T16:29:04;54.70;;;24.95;;
77109;SDS011;66062;52.464;16.922;2022-12-24T16:31:33;55.50;;;25.23;;
77109;SDS011;66062;52.464;16.922;2022-12-24T16:34:01;62.03;;;28.00;;
77109;SDS011;66062;52.464;16.922;2022-12-24T16:36:30;57.08;;;24.95;;
77109;SDS011;66062;52.464;16.922;2022-12-24T16:38:57;63.22;;;25.27;;
77109;SDS011;66062;52.464;16.922;2022-12-24T16:41:59;57.58;;;24.92;;
77109;SDS011;66062;52.464;16.922;2022-12-24T16:44:46;62.00;;;28.05;;
77109;SDS011;66062;52.464;16.922;2022-12-24T16:47:12;57.83;;;26.08;;
77109;SDS011;66062;52.464;16.922;2022-12-24T16:49:41;56.78;;;25.45;;